Blossomfield, United Kingdom
Current Conditions -  °F | °C
As of 12:50 PM on Saturday 20 Dec 2014 (Local Time) from EGBB Reporting Station
Broken Clouds Broken Clouds  
Wind Chill: 43°   Ceiling: 3700
Heat Index: 48°   Visibility: 6mi
Dew Point: 36°   Wind: 13mph
Humidity: 62%   Direction: 280°W
Pressure: 30.27"   Gusts: NA
Location:  52.4°N, 1.85°W
Report Text: EGBB 201250Z 28011KT 9999 BKN037 09/02 Q1025
Loading
Personal Weather Stations






























Interactive Weather Map New forecast layout! Learn more

10-Day Weather Forecast

Advertisements
Track Severe Weather on mobile